sensor_id;sensor_type;location;lat;lon;timestamp;P1;durP1;ratioP1;P2;durP2;ratioP2
12871;SDS011;6504;53.766;9.626;2024-01-15T00:01:03;8.13;;;2.70;;
12871;SDS011;6504;53.766;9.626;2024-01-15T00:03:32;8.80;;;2.67;;
12871;SDS011;6504;53.766;9.626;2024-01-15T00:06:00;6.43;;;2.30;;
12871;SDS011;6504;53.766;9.626;2024-01-15T00:08:28;13.37;;;2.50;;
12871;SDS011;6504;53.766;9.626;2024-01-15T00:10:56;14.70;;;2.80;;
12871;SDS011;6504;53.766;9.626;2024-01-15T00:13:24;9.23;;;2.70;;
12871;SDS011;6504;53.766;9.626;2024-01-15T00:15:54;12.17;;;3.10;;
12871;SDS011;6504;53.766;9.626;2024-01-15T00:18:22;8.27;;;4.33;;
12871;SDS011;6504;53.766;9.626;2024-01-15T00:20:51;11.67;;;3.33;;
12871;SDS011;6504;53.766;9.626;2024-01-15T00:23:19;10.10;;;2.30;;
12871;SDS011;6504;53.766;9.626;2024-01-15T00:25:47;13.67;;;3.03;;
12871;SDS011;6504;53.766;9.626;2024-01-15T00:28:15;11.43;;;2.67;;
12871;SDS011;6504;53.766;9.626;2024-01-15T00:30:43;12.37;;;3.30;;
12871;SDS011;6504;53.766;9.626;2024-01-15T00:33:13;15.57;;;2.77;;
12871;SDS011;6504;53.766;9.626;2024-01-15T00:35:41;12.33;;;2.33;;
12871;SDS011;6504;53.766;9.626;2024-01-15T00:38:09;10.70;;;2.30;;
12871;SDS011;6504;53.766;9.626;2024-01-15T00:40:38;7.33;;;2.47;;
12871;SDS011;6504;53.766;9.626;2024-01-15T00:43:06;16.37;;;2.60;;
12871;SDS011;6504;53.766;9.626;2024-01-15T00:45:34;14.03;;;2.63;;
12871;SDS011;6504;53.766;9.626;2024-01-15T00:48:02;12.97;;;2.77;;
12871;SDS011;6504;53.766;9.626;2024-01-15T00:50:33;10.13;;;2.60;;
12871;SDS011;6504;53.766;9.626;2024-01-15T00:53:01;8.93;;;2.60;;
12871;SDS011;6504;53.766;9.626;2024-01-15T00:55:29;12.47;;;3.17;;
12871;SDS011;6504;53.766;9.626;2024-01-15T00:57:57;12.10;;;2.10;;
12871;SDS011;6504;53.766;9.626;2024-01-15T01:00:25;8.87;;;2.33;;
12871;SDS011;6504;53.766;9.626;2024-01-15T01:02:53;7.77;;;2.10;;
12871;SDS011;6504;53.766;9.626;2024-01-15T01:05:21;6.83;;;2.50;;
12871;SDS011;6504;53.766;9.626;2024-01-15T01:07:51;10.47;;;2.93;;
12871;SDS011;6504;53.766;9.626;2024-01-15T01:10:19;7.57;;;2.07;;
12871;SDS011;6504;53.766;9.626;2024-01-15T01:12:47;12.63;;;2.80;;
12871;SDS011;6504;53.766;9.626;2024-01-15T01:15:15;11.53;;;2.57;;
12871;SDS011;6504;53.766;9.626;2024-01-15T01:17:43;13.53;;;2.60;;
12871;SDS011;6504;53.766;9.626;2024-01-15T01:20:12;10.47;;;2.60;;
12871;SDS011;6504;53.766;9.626;2024-01-15T01:22:44;11.00;;;2.83;;
12871;SDS011;6504;53.766;9.626;2024-01-15T01:25:14;12.43;;;3.17;;
12871;SDS011;6504;53.766;9.626;2024-01-15T01:27:43;12.03;;;2.70;;
12871;SDS011;6504;53.766;9.626;2024-01-15T01:30:11;8.20;;;2.57;;
12871;SDS011;6504;53.766;9.626;2024-01-15T01:32:39;8.53;;;2.30;;
12871;SDS011;6504;53.766;9.626;2024-01-15T01:35:07;10.80;;;2.30;;
12871;SDS011;6504;53.766;9.626;2024-01-15T01:37:35;15.67;;;2.87;;
12871;SDS011;6504;53.766;9.626;2024-01-15T01:40:04;12.63;;;2.90;;
12871;SDS011;6504;53.766;9.626;2024-01-15T01:42:34;9.03;;;2.50;;
12871;SDS011;6504;53.766;9.626;2024-01-15T01:45:03;11.13;;;3.20;;
12871;SDS011;6504;53.766;9.626;2024-01-15T01:47:32;9.53;;;2.57;;
12871;SDS011;6504;53.766;9.626;2024-01-15T01:50:01;11.37;;;2.97;;
12871;SDS011;6504;53.766;9.626;2024-01-15T01:52:30;10.30;;;2.80;;
12871;SDS011;6504;53.766;9.626;2024-01-15T01:54:58;9.87;;;2.67;;
12871;SDS011;6504;53.766;9.626;2024-01-15T01:57:27;9.63;;;3.00;;
12871;SDS011;6504;53.766;9.626;2024-01-15T01:59:59;10.67;;;2.77;;
12871;SDS011;6504;53.766;9.626;2024-01-15T02:02:27;10.90;;;2.70;;
12871;SDS011;6504;53.766;9.626;2024-01-15T02:04:55;13.60;;;3.23;;
12871;SDS011;6504;53.766;9.626;2024-01-15T02:07:25;13.67;;;3.20;;
12871;SDS011;6504;53.766;9.626;2024-01-15T02:09:53;13.13;;;3.33;;
12871;SDS011;6504;53.766;9.626;2024-01-15T02:12:21;17.00;;;3.47;;
12871;SDS011;6504;53.766;9.626;2024-01-15T02:14:49;14.73;;;2.93;;
12871;SDS011;6504;53.766;9.626;2024-01-15T02:17:19;10.47;;;2.93;;
12871;SDS011;6504;53.766;9.626;2024-01-15T02:19:47;13.27;;;3.13;;
12871;SDS011;6504;53.766;9.626;2024-01-15T02:22:15;14.93;;;3.80;;
12871;SDS011;6504;53.766;9.626;2024-01-15T02:24:44;18.83;;;4.13;;
12871;SDS011;6504;53.766;9.626;2024-01-15T02:27:13;13.43;;;3.27;;
12871;SDS011;6504;53.766;9.626;2024-01-15T02:29:41;13.70;;;3.77;;
12871;SDS011;6504;53.766;9.626;2024-01-15T02:32:10;14.23;;;4.20;;
12871;SDS011;6504;53.766;9.626;2024-01-15T02:34:38;16.23;;;3.40;;
12871;SDS011;6504;53.766;9.626;2024-01-15T02:37:07;14.80;;;3.40;;
12871;SDS011;6504;53.766;9.626;2024-01-15T02:39:35;10.00;;;3.50;;
12871;SDS011;6504;53.766;9.626;2024-01-15T02:42:05;13.20;;;2.90;;
12871;SDS011;6504;53.766;9.626;2024-01-15T02:44:33;11.70;;;2.70;;
12871;SDS011;6504;53.766;9.626;2024-01-15T02:47:01;8.90;;;2.87;;
12871;SDS011;6504;53.766;9.626;2024-01-15T02:49:29;14.43;;;3.37;;
12871;SDS011;6504;53.766;9.626;2024-01-15T02:51:59;14.60;;;2.87;;
12871;SDS011;6504;53.766;9.626;2024-01-15T02:54:27;15.23;;;3.70;;
12871;SDS011;6504;53.766;9.626;2024-01-15T02:56:55;13.93;;;3.33;;
12871;SDS011;6504;53.766;9.626;2024-01-15T02:59:24;15.63;;;3.27;;
12871;SDS011;6504;53.766;9.626;2024-01-15T03:01:52;17.07;;;3.87;;
12871;SDS011;6504;53.766;9.626;2024-01-15T03:04:20;17.27;;;4.33;;
12871;SDS011;6504;53.766;9.626;2024-01-15T03:06:49;17.13;;;3.37;;
12871;SDS011;6504;53.766;9.626;2024-01-15T03:09:17;18.73;;;3.13;;
12871;SDS011;6504;53.766;9.626;2024-01-15T03:11:45;10.80;;;3.60;;
12871;SDS011;6504;53.766;9.626;2024-01-15T03:14:13;9.97;;;3.07;;
12871;SDS011;6504;53.766;9.626;2024-01-15T03:16:42;15.43;;;4.17;;
12871;SDS011;6504;53.766;9.626;2024-01-15T03:19:10;13.07;;;3.27;;
12871;SDS011;6504;53.766;9.626;2024-01-15T03:21:39;22.17;;;4.10;;
12871;SDS011;6504;53.766;9.626;2024-01-15T03:24:07;15.73;;;4.00;;
12871;SDS011;6504;53.766;9.626;2024-01-15T03:26:35;16.00;;;3.53;;
12871;SDS011;6504;53.766;9.626;2024-01-15T03:29:03;17.03;;;4.20;;
12871;SDS011;6504;53.766;9.626;2024-01-15T03:31:31;12.60;;;3.77;;
12871;SDS011;6504;53.766;9.626;2024-01-15T03:34:00;12.60;;;3.03;;
12871;SDS011;6504;53.766;9.626;2024-01-15T03:36:29;18.10;;;4.90;;
12871;SDS011;6504;53.766;9.626;2024-01-15T03:38:57;20.70;;;4.10;;
12871;SDS011;6504;53.766;9.626;2024-01-15T03:41:25;13.47;;;3.67;;
12871;SDS011;6504;53.766;9.626;2024-01-15T03:43:54;19.03;;;3.93;;
12871;SDS011;6504;53.766;9.626;2024-01-15T03:46:22;14.60;;;3.40;;
12871;SDS011;6504;53.766;9.626;2024-01-15T03:48:50;18.80;;;3.60;;
12871;SDS011;6504;53.766;9.626;2024-01-15T03:51:19;15.53;;;3.53;;
12871;SDS011;6504;53.766;9.626;2024-01-15T03:53:47;13.87;;;3.30;;
12871;SDS011;6504;53.766;9.626;2024-01-15T03:56:15;11.63;;;3.20;;
12871;SDS011;6504;53.766;9.626;2024-01-15T03:58:43;15.67;;;3.40;;
12871;SDS011;6504;53.766;9.626;2024-01-15T04:01:11;16.57;;;3.80;;
12871;SDS011;6504;53.766;9.626;2024-01-15T04:03:40;13.97;;;3.93;;
12871;SDS011;6504;53.766;9.626;2024-01-15T04:06:09;13.43;;;3.60;;
12871;SDS011;6504;53.766;9.626;2024-01-15T04:08:38;16.07;;;3.63;;
12871;SDS011;6504;53.766;9.626;2024-01-15T04:11:06;18.07;;;3.77;;
12871;SDS011;6504;53.766;9.626;2024-01-15T04:13:34;19.43;;;4.10;;
12871;SDS011;6504;53.766;9.626;2024-01-15T04:16:06;18.50;;;3.63;;
12871;SDS011;6504;53.766;9.626;2024-01-15T04:18:34;17.40;;;3.90;;
12871;SDS011;6504;53.766;9.626;2024-01-15T04:21:03;18.87;;;4.13;;
12871;SDS011;6504;53.766;9.626;2024-01-15T04:23:32;20.30;;;4.53;;
12871;SDS011;6504;53.766;9.626;2024-01-15T04:26:02;18.37;;;5.23;;
12871;SDS011;6504;53.766;9.626;2024-01-15T04:28:30;22.83;;;4.97;;
12871;SDS011;6504;53.766;9.626;2024-01-15T04:30:58;20.93;;;4.63;;
12871;SDS011;6504;53.766;9.626;2024-01-15T04:33:26;24.53;;;6.10;;
12871;SDS011;6504;53.766;9.626;2024-01-15T04:35:55;23.83;;;5.23;;
12871;SDS011;6504;53.766;9.626;2024-01-15T04:38:23;16.90;;;4.20;;
12871;SDS011;6504;53.766;9.626;2024-01-15T04:40:51;22.90;;;4.70;;
12871;SDS011;6504;53.766;9.626;2024-01-15T04:43:25;23.70;;;5.10;;
12871;SDS011;6504;53.766;9.626;2024-01-15T04:45:53;17.57;;;4.47;;
12871;SDS011;6504;53.766;9.626;2024-01-15T04:48:21;20.30;;;4.87;;
12871;SDS011;6504;53.766;9.626;2024-01-15T04:50:50;15.77;;;4.80;;
12871;SDS011;6504;53.766;9.626;2024-01-15T04:53:18;17.07;;;4.47;;
12871;SDS011;6504;53.766;9.626;2024-01-15T04:55:46;17.27;;;5.67;;
12871;SDS011;6504;53.766;9.626;2024-01-15T04:58:14;21.50;;;4.80;;
12871;SDS011;6504;53.766;9.626;2024-01-15T05:00:43;19.33;;;5.20;;
12871;SDS011;6504;53.766;9.626;2024-01-15T05:03:12;20.73;;;6.43;;
12871;SDS011;6504;53.766;9.626;2024-01-15T05:05:41;20.57;;;5.57;;
12871;SDS011;6504;53.766;9.626;2024-01-15T05:08:09;20.87;;;4.60;;
12871;SDS011;6504;53.766;9.626;2024-01-15T05:10:37;19.67;;;4.53;;
12871;SDS011;6504;53.766;9.626;2024-01-15T05:13:05;18.67;;;4.53;;
12871;SDS011;6504;53.766;9.626;2024-01-15T05:15:33;20.50;;;4.70;;
12871;SDS011;6504;53.766;9.626;2024-01-15T05:18:03;17.30;;;3.83;;
12871;SDS011;6504;53.766;9.626;2024-01-15T05:20:32;19.30;;;4.17;;
12871;SDS011;6504;53.766;9.626;2024-01-15T05:23:01;16.60;;;4.67;;
12871;SDS011;6504;53.766;9.626;2024-01-15T05:25:29;19.97;;;4.93;;
12871;SDS011;6504;53.766;9.626;2024-01-15T05:27:57;20.87;;;4.87;;
12871;SDS011;6504;53.766;9.626;2024-01-15T05:30:25;23.60;;;4.00;;
12871;SDS011;6504;53.766;9.626;2024-01-15T05:32:53;13.77;;;3.87;;
12871;SDS011;6504;53.766;9.626;2024-01-15T05:35:23;17.87;;;4.13;;
12871;SDS011;6504;53.766;9.626;2024-01-15T05:37:51;17.53;;;4.17;;
12871;SDS011;6504;53.766;9.626;2024-01-15T05:40:19;13.47;;;4.47;;
12871;SDS011;6504;53.766;9.626;2024-01-15T05:42:47;15.53;;;4.20;;
12871;SDS011;6504;53.766;9.626;2024-01-15T05:45:16;16.77;;;4.33;;
12871;SDS011;6504;53.766;9.626;2024-01-15T05:47:44;9.50;;;3.07;;
12871;SDS011;6504;53.766;9.626;2024-01-15T05:50:12;10.93;;;3.43;;
12871;SDS011;6504;53.766;9.626;2024-01-15T05:52:41;12.40;;;2.90;;
12871;SDS011;6504;53.766;9.626;2024-01-15T05:55:09;10.50;;;3.27;;
12871;SDS011;6504;53.766;9.626;2024-01-15T05:57:37;10.80;;;2.73;;
12871;SDS011;6504;53.766;9.626;2024-01-15T06:00:06;8.63;;;2.57;;
12871;SDS011;6504;53.766;9.626;2024-01-15T06:02:37;5.93;;;1.97;;
12871;SDS011;6504;53.766;9.626;2024-01-15T06:05:05;7.70;;;2.13;;
12871;SDS011;6504;53.766;9.626;2024-01-15T06:07:34;6.80;;;1.93;;
12871;SDS011;6504;53.766;9.626;2024-01-15T06:10:04;5.53;;;2.33;;
12871;SDS011;6504;53.766;9.626;2024-01-15T06:12:32;6.70;;;1.87;;
12871;SDS011;6504;53.766;9.626;2024-01-15T06:15:00;4.77;;;1.60;;
12871;SDS011;6504;53.766;9.626;2024-01-15T06:17:29;4.47;;;1.40;;
12871;SDS011;6504;53.766;9.626;2024-01-15T06:19:57;4.53;;;1.50;;
12871;SDS011;6504;53.766;9.626;2024-01-15T06:22:25;5.20;;;1.60;;
12871;SDS011;6504;53.766;9.626;2024-01-15T06:24:54;4.20;;;1.60;;
12871;SDS011;6504;53.766;9.626;2024-01-15T06:27:23;4.67;;;1.90;;
12871;SDS011;6504;53.766;9.626;2024-01-15T06:29:52;6.27;;;1.57;;
12871;SDS011;6504;53.766;9.626;2024-01-15T06:32:20;6.37;;;1.50;;
12871;SDS011;6504;53.766;9.626;2024-01-15T06:34:48;5.73;;;1.43;;
12871;SDS011;6504;53.766;9.626;2024-01-15T06:37:16;5.50;;;1.70;;
12871;SDS011;6504;53.766;9.626;2024-01-15T06:39:45;5.03;;;1.40;;
12871;SDS011;6504;53.766;9.626;2024-01-15T06:42:14;4.77;;;1.60;;
12871;SDS011;6504;53.766;9.626;2024-01-15T06:44:43;6.10;;;1.50;;
12871;SDS011;6504;53.766;9.626;2024-01-15T06:47:11;5.63;;;1.77;;
12871;SDS011;6504;53.766;9.626;2024-01-15T06:49:40;7.50;;;2.27;;
12871;SDS011;6504;53.766;9.626;2024-01-15T06:52:08;6.93;;;1.93;;
12871;SDS011;6504;53.766;9.626;2024-01-15T06:54:37;8.67;;;2.20;;
12871;SDS011;6504;53.766;9.626;2024-01-15T06:57:06;9.10;;;2.10;;
12871;SDS011;6504;53.766;9.626;2024-01-15T06:59:34;9.50;;;1.83;;
12871;SDS011;6504;53.766;9.626;2024-01-15T07:02:04;5.83;;;2.00;;
12871;SDS011;6504;53.766;9.626;2024-01-15T07:04:32;6.47;;;1.90;;
12871;SDS011;6504;53.766;9.626;2024-01-15T07:07:08;5.60;;;2.87;;
12871;SDS011;6504;53.766;9.626;2024-01-15T07:09:36;6.67;;;2.13;;
12871;SDS011;6504;53.766;9.626;2024-01-15T07:12:05;6.77;;;2.10;;
12871;SDS011;6504;53.766;9.626;2024-01-15T07:14:33;7.13;;;2.30;;
12871;SDS011;6504;53.766;9.626;2024-01-15T07:17:01;7.30;;;2.40;;
12871;SDS011;6504;53.766;9.626;2024-01-15T07:19:31;7.87;;;2.10;;
12871;SDS011;6504;53.766;9.626;2024-01-15T07:21:59;6.57;;;2.00;;
12871;SDS011;6504;53.766;9.626;2024-01-15T07:24:27;7.40;;;2.30;;
12871;SDS011;6504;53.766;9.626;2024-01-15T07:26:56;8.23;;;2.27;;
12871;SDS011;6504;53.766;9.626;2024-01-15T07:29:24;5.17;;;2.10;;
12871;SDS011;6504;53.766;9.626;2024-01-15T07:31:52;5.47;;;2.60;;
12871;SDS011;6504;53.766;9.626;2024-01-15T07:34:22;7.20;;;2.50;;
12871;SDS011;6504;53.766;9.626;2024-01-15T07:36:50;9.40;;;2.40;;
12871;SDS011;6504;53.766;9.626;2024-01-15T07:39:18;8.53;;;2.13;;
12871;SDS011;6504;53.766;9.626;2024-01-15T07:41:46;5.17;;;1.77;;
12871;SDS011;6504;53.766;9.626;2024-01-15T07:44:14;7.67;;;2.50;;
12871;SDS011;6504;53.766;9.626;2024-01-15T07:46:43;9.17;;;2.00;;
12871;SDS011;6504;53.766;9.626;2024-01-15T07:49:12;10.07;;;2.53;;
12871;SDS011;6504;53.766;9.626;2024-01-15T07:51:42;9.20;;;2.27;;
12871;SDS011;6504;53.766;9.626;2024-01-15T07:54:11;10.40;;;2.27;;
12871;SDS011;6504;53.766;9.626;2024-01-15T07:56:52;9.40;;;2.70;;
12871;SDS011;6504;53.766;9.626;2024-01-15T07:59:21;9.00;;;2.67;;
12871;SDS011;6504;53.766;9.626;2024-01-15T08:01:49;9.73;;;2.10;;
12871;SDS011;6504;53.766;9.626;2024-01-15T08:04:18;10.97;;;2.57;;
12871;SDS011;6504;53.766;9.626;2024-01-15T08:06:48;9.87;;;2.70;;
12871;SDS011;6504;53.766;9.626;2024-01-15T08:09:16;7.33;;;2.70;;
12871;SDS011;6504;53.766;9.626;2024-01-15T08:11:44;10.43;;;2.67;;
12871;SDS011;6504;53.766;9.626;2024-01-15T08:14:12;11.50;;;2.47;;
12871;SDS011;6504;53.766;9.626;2024-01-15T08:16:41;13.17;;;2.47;;
12871;SDS011;6504;53.766;9.626;2024-01-15T08:19:10;10.20;;;2.40;;
12871;SDS011;6504;53.766;9.626;2024-01-15T08:21:38;9.30;;;2.90;;
12871;SDS011;6504;53.766;9.626;2024-01-15T08:24:08;7.17;;;2.23;;
12871;SDS011;6504;53.766;9.626;2024-01-15T08:26:36;11.40;;;2.80;;
12871;SDS011;6504;53.766;9.626;2024-01-15T08:29:04;10.47;;;2.10;;
12871;SDS011;6504;53.766;9.626;2024-01-15T08:31:32;7.20;;;2.27;;
12871;SDS011;6504;53.766;9.626;2024-01-15T08:34:01;11.73;;;2.80;;
12871;SDS011;6504;53.766;9.626;2024-01-15T08:36:29;6.20;;;2.03;;
12871;SDS011;6504;53.766;9.626;2024-01-15T08:38:58;9.20;;;2.40;;
12871;SDS011;6504;53.766;9.626;2024-01-15T08:41:27;8.23;;;3.17;;
12871;SDS011;6504;53.766;9.626;2024-01-15T08:43:55;12.50;;;3.43;;
12871;SDS011;6504;53.766;9.626;2024-01-15T08:46:23;7.93;;;2.60;;
12871;SDS011;6504;53.766;9.626;2024-01-15T08:48:51;10.00;;;2.67;;
12871;SDS011;6504;53.766;9.626;2024-01-15T08:51:19;11.13;;;2.87;;
12871;SDS011;6504;53.766;9.626;2024-01-15T08:53:48;6.47;;;2.20;;
12871;SDS011;6504;53.766;9.626;2024-01-15T08:56:16;8.97;;;2.67;;
12871;SDS011;6504;53.766;9.626;2024-01-15T08:58:45;12.27;;;2.70;;
12871;SDS011;6504;53.766;9.626;2024-01-15T09:01:13;8.63;;;3.27;;
12871;SDS011;6504;53.766;9.626;2024-01-15T09:03:42;10.67;;;2.47;;
12871;SDS011;6504;53.766;9.626;2024-01-15T09:06:10;11.10;;;3.37;;
12871;SDS011;6504;53.766;9.626;2024-01-15T09:08:38;9.77;;;2.83;;
12871;SDS011;6504;53.766;9.626;2024-01-15T09:11:07;8.80;;;2.90;;
12871;SDS011;6504;53.766;9.626;2024-01-15T09:13:35;10.10;;;2.60;;
12871;SDS011;6504;53.766;9.626;2024-01-15T09:16:05;12.77;;;2.97;;
12871;SDS011;6504;53.766;9.626;2024-01-15T09:18:33;9.83;;;2.87;;
12871;SDS011;6504;53.766;9.626;2024-01-15T09:21:02;14.40;;;3.17;;
12871;SDS011;6504;53.766;9.626;2024-01-15T09:23:31;13.67;;;3.20;;
12871;SDS011;6504;53.766;9.626;2024-01-15T09:25:59;10.13;;;3.33;;
12871;SDS011;6504;53.766;9.626;2024-01-15T09:28:27;12.50;;;2.93;;
12871;SDS011;6504;53.766;9.626;2024-01-15T09:30:55;14.23;;;4.40;;
12871;SDS011;6504;53.766;9.626;2024-01-15T09:33:25;11.77;;;3.63;;
12871;SDS011;6504;53.766;9.626;2024-01-15T09:35:53;10.53;;;2.90;;
12871;SDS011;6504;53.766;9.626;2024-01-15T09:38:21;10.07;;;2.63;;
12871;SDS011;6504;53.766;9.626;2024-01-15T09:40:50;11.90;;;3.00;;
12871;SDS011;6504;53.766;9.626;2024-01-15T09:43:19;10.87;;;3.27;;
12871;SDS011;6504;53.766;9.626;2024-01-15T09:45:47;11.20;;;2.50;;
12871;SDS011;6504;53.766;9.626;2024-01-15T09:48:18;11.97;;;3.77;;
12871;SDS011;6504;53.766;9.626;2024-01-15T09:50:47;11.03;;;2.77;;
12871;SDS011;6504;53.766;9.626;2024-01-15T09:53:16;11.27;;;2.67;;
12871;SDS011;6504;53.766;9.626;2024-01-15T09:55:45;13.03;;;3.63;;
12871;SDS011;6504;53.766;9.626;2024-01-15T09:58:14;12.67;;;3.00;;
12871;SDS011;6504;53.766;9.626;2024-01-15T10:00:42;9.97;;;2.80;;
12871;SDS011;6504;53.766;9.626;2024-01-15T10:03:11;10.83;;;2.40;;
12871;SDS011;6504;53.766;9.626;2024-01-15T10:05:40;10.23;;;2.57;;
12871;SDS011;6504;53.766;9.626;2024-01-15T10:08:10;6.43;;;2.10;;
12871;SDS011;6504;53.766;9.626;2024-01-15T10:10:38;10.43;;;2.50;;
12871;SDS011;6504;53.766;9.626;2024-01-15T10:13:07;6.50;;;2.10;;
12871;SDS011;6504;53.766;9.626;2024-01-15T10:15:35;10.37;;;2.00;;
12871;SDS011;6504;53.766;9.626;2024-01-15T10:18:05;5.63;;;2.03;;
12871;SDS011;6504;53.766;9.626;2024-01-15T10:20:33;10.37;;;2.63;;
12871;SDS011;6504;53.766;9.626;2024-01-15T10:23:01;7.13;;;2.43;;
12871;SDS011;6504;53.766;9.626;2024-01-15T10:25:32;7.17;;;2.43;;
12871;SDS011;6504;53.766;9.626;2024-01-15T10:28:00;7.43;;;2.27;;
12871;SDS011;6504;53.766;9.626;2024-01-15T10:30:29;8.33;;;2.23;;
12871;SDS011;6504;53.766;9.626;2024-01-15T10:32:59;8.30;;;2.30;;
12871;SDS011;6504;53.766;9.626;2024-01-15T10:35:29;9.70;;;2.60;;
12871;SDS011;6504;53.766;9.626;2024-01-15T10:37:58;11.23;;;2.03;;
12871;SDS011;6504;53.766;9.626;2024-01-15T10:40:26;9.33;;;2.17;;
12871;SDS011;6504;53.766;9.626;2024-01-15T10:42:56;9.00;;;2.47;;
12871;SDS011;6504;53.766;9.626;2024-01-15T10:45:24;7.43;;;2.60;;
12871;SDS011;6504;53.766;9.626;2024-01-15T10:47:53;7.47;;;2.60;;
12871;SDS011;6504;53.766;9.626;2024-01-15T10:50:25;11.53;;;2.87;;
12871;SDS011;6504;53.766;9.626;2024-01-15T10:52:54;9.07;;;2.93;;
12871;SDS011;6504;53.766;9.626;2024-01-15T10:55:22;8.73;;;2.20;;
12871;SDS011;6504;53.766;9.626;2024-01-15T10:57:51;7.83;;;2.30;;
12871;SDS011;6504;53.766;9.626;2024-01-15T11:00:24;5.90;;;2.10;;
12871;SDS011;6504;53.766;9.626;2024-01-15T11:02:53;6.13;;;2.17;;
12871;SDS011;6504;53.766;9.626;2024-01-15T11:05:22;7.90;;;1.60;;
12871;SDS011;6504;53.766;9.626;2024-01-15T11:07:50;6.30;;;1.83;;
12871;SDS011;6504;53.766;9.626;2024-01-15T11:10:37;6.73;;;1.93;;
12871;SDS011;6504;53.766;9.626;2024-01-15T11:13:08;11.33;;;2.07;;
12871;SDS011;6504;53.766;9.626;2024-01-15T11:15:59;11.20;;;2.60;;
12871;SDS011;6504;53.766;9.626;2024-01-15T11:18:29;9.40;;;2.60;;
12871;SDS011;6504;53.766;9.626;2024-01-15T11:23:52;5.97;;;2.03;;
12871;SDS011;6504;53.766;9.626;2024-01-15T11:26:27;5.73;;;2.00;;
12871;SDS011;6504;53.766;9.626;2024-01-15T11:28:55;6.10;;;1.80;;
12871;SDS011;6504;53.766;9.626;2024-01-15T11:31:27;3.13;;;1.50;;
12871;SDS011;6504;53.766;9.626;2024-01-15T11:33:56;4.03;;;1.50;;
12871;SDS011;6504;53.766;9.626;2024-01-15T11:42:13;3.87;;;1.00;;
12871;SDS011;6504;53.766;9.626;2024-01-15T11:44:43;4.93;;;1.73;;
12871;SDS011;6504;53.766;9.626;2024-01-15T11:47:12;4.23;;;1.70;;
12871;SDS011;6504;53.766;9.626;2024-01-15T11:49:58;1.83;;;1.33;;
12871;SDS011;6504;53.766;9.626;2024-01-15T11:52:32;3.63;;;1.43;;
12871;SDS011;6504;53.766;9.626;2024-01-15T11:55:01;6.60;;;1.60;;
12871;SDS011;6504;53.766;9.626;2024-01-15T11:57:44;4.17;;;2.10;;
12871;SDS011;6504;53.766;9.626;2024-01-15T12:00:14;2.90;;;2.17;;
12871;SDS011;6504;53.766;9.626;2024-01-15T12:02:45;4.67;;;1.40;;
12871;SDS011;6504;53.766;9.626;2024-01-15T12:05:14;1.93;;;1.50;;
12871;SDS011;6504;53.766;9.626;2024-01-15T12:07:44;1.87;;;1.23;;
12871;SDS011;6504;53.766;9.626;2024-01-15T12:10:14;3.50;;;1.20;;
12871;SDS011;6504;53.766;9.626;2024-01-15T12:12:57;3.13;;;1.33;;
12871;SDS011;6504;53.766;9.626;2024-01-15T12:15:26;4.13;;;1.30;;
12871;SDS011;6504;53.766;9.626;2024-01-15T12:17:58;2.90;;;1.40;;
12871;SDS011;6504;53.766;9.626;2024-01-15T12:20:29;2.87;;;1.40;;
12871;SDS011;6504;53.766;9.626;2024-01-15T12:22:58;3.30;;;1.43;;
12871;SDS011;6504;53.766;9.626;2024-01-15T12:25:30;3.23;;;1.60;;
12871;SDS011;6504;53.766;9.626;2024-01-15T12:27:58;3.07;;;1.30;;
12871;SDS011;6504;53.766;9.626;2024-01-15T12:30:27;3.43;;;1.77;;
12871;SDS011;6504;53.766;9.626;2024-01-15T12:32:59;4.57;;;1.40;;
12871;SDS011;6504;53.766;9.626;2024-01-15T12:35:30;4.33;;;1.70;;
12871;SDS011;6504;53.766;9.626;2024-01-15T12:37:59;3.03;;;1.63;;
12871;SDS011;6504;53.766;9.626;2024-01-15T12:40:30;2.63;;;1.40;;
12871;SDS011;6504;53.766;9.626;2024-01-15T12:42:59;3.57;;;1.30;;
12871;SDS011;6504;53.766;9.626;2024-01-15T12:45:28;3.47;;;1.47;;
12871;SDS011;6504;53.766;9.626;2024-01-15T12:47:58;3.00;;;1.40;;
12871;SDS011;6504;53.766;9.626;2024-01-15T12:50:28;3.13;;;1.30;;
12871;SDS011;6504;53.766;9.626;2024-01-15T12:52:56;4.80;;;1.70;;
12871;SDS011;6504;53.766;9.626;2024-01-15T12:55:25;2.90;;;1.03;;
12871;SDS011;6504;53.766;9.626;2024-01-15T12:57:53;4.33;;;1.27;;
12871;SDS011;6504;53.766;9.626;2024-01-15T13:00:22;2.50;;;1.13;;
12871;SDS011;6504;53.766;9.626;2024-01-15T13:02:52;1.77;;;1.30;;
12871;SDS011;6504;53.766;9.626;2024-01-15T13:05:22;2.93;;;1.20;;
12871;SDS011;6504;53.766;9.626;2024-01-15T13:07:52;2.90;;;1.53;;
12871;SDS011;6504;53.766;9.626;2024-01-15T13:10:20;3.27;;;1.40;;
12871;SDS011;6504;53.766;9.626;2024-01-15T13:12:51;3.60;;;1.40;;
12871;SDS011;6504;53.766;9.626;2024-01-15T13:15:20;2.70;;;1.37;;
12871;SDS011;6504;53.766;9.626;2024-01-15T13:17:48;3.60;;;2.27;;
12871;SDS011;6504;53.766;9.626;2024-01-15T13:20:16;3.80;;;2.00;;
12871;SDS011;6504;53.766;9.626;2024-01-15T13:22:46;3.23;;;1.83;;
12871;SDS011;6504;53.766;9.626;2024-01-15T13:25:14;2.87;;;1.30;;
12871;SDS011;6504;53.766;9.626;2024-01-15T13:27:42;2.47;;;1.03;;
12871;SDS011;6504;53.766;9.626;2024-01-15T13:30:11;1.23;;;1.13;;
12871;SDS011;6504;53.766;9.626;2024-01-15T13:32:40;3.90;;;1.80;;
12871;SDS011;6504;53.766;9.626;2024-01-15T13:35:08;3.80;;;2.40;;
12871;SDS011;6504;53.766;9.626;2024-01-15T13:37:40;3.87;;;2.33;;
12871;SDS011;6504;53.766;9.626;2024-01-15T13:40:10;3.20;;;2.00;;
12871;SDS011;6504;53.766;9.626;2024-01-15T13:42:44;2.10;;;1.50;;
12871;SDS011;6504;53.766;9.626;2024-01-15T13:45:12;2.73;;;1.10;;
12871;SDS011;6504;53.766;9.626;2024-01-15T13:47:41;4.40;;;1.53;;
12871;SDS011;6504;53.766;9.626;2024-01-15T13:50:10;2.47;;;1.40;;
12871;SDS011;6504;53.766;9.626;2024-01-15T13:52:38;2.37;;;1.13;;
12871;SDS011;6504;53.766;9.626;2024-01-15T13:55:06;3.67;;;1.23;;
12871;SDS011;6504;53.766;9.626;2024-01-15T13:57:37;3.03;;;1.20;;
12871;SDS011;6504;53.766;9.626;2024-01-15T14:00:06;1.53;;;0.93;;
12871;SDS011;6504;53.766;9.626;2024-01-15T14:02:38;2.30;;;1.30;;
12871;SDS011;6504;53.766;9.626;2024-01-15T14:05:06;3.03;;;1.37;;
12871;SDS011;6504;53.766;9.626;2024-01-15T14:07:35;3.73;;;2.23;;
12871;SDS011;6504;53.766;9.626;2024-01-15T14:10:03;9.03;;;4.27;;
12871;SDS011;6504;53.766;9.626;2024-01-15T14:12:34;9.60;;;4.73;;
12871;SDS011;6504;53.766;9.626;2024-01-15T14:15:05;7.50;;;5.00;;
12871;SDS011;6504;53.766;9.626;2024-01-15T14:17:33;9.83;;;5.73;;
12871;SDS011;6504;53.766;9.626;2024-01-15T14:20:02;8.30;;;4.60;;
12871;SDS011;6504;53.766;9.626;2024-01-15T14:22:32;3.10;;;2.00;;
12871;SDS011;6504;53.766;9.626;2024-01-15T14:25:00;2.67;;;1.83;;
12871;SDS011;6504;53.766;9.626;2024-01-15T14:27:28;2.13;;;1.67;;
12871;SDS011;6504;53.766;9.626;2024-01-15T14:29:56;2.93;;;1.37;;
12871;SDS011;6504;53.766;9.626;2024-01-15T14:32:25;2.17;;;1.30;;
12871;SDS011;6504;53.766;9.626;2024-01-15T14:34:53;1.67;;;1.20;;
12871;SDS011;6504;53.766;9.626;2024-01-15T14:37:23;1.97;;;1.30;;
12871;SDS011;6504;53.766;9.626;2024-01-15T14:39:51;1.97;;;1.20;;
12871;SDS011;6504;53.766;9.626;2024-01-15T14:42:19;2.97;;;1.23;;
12871;SDS011;6504;53.766;9.626;2024-01-15T14:44:47;1.80;;;1.30;;
12871;SDS011;6504;53.766;9.626;2024-01-15T14:47:15;1.23;;;1.13;;
12871;SDS011;6504;53.766;9.626;2024-01-15T14:49:48;1.30;;;1.20;;
12871;SDS011;6504;53.766;9.626;2024-01-15T14:52:16;1.87;;;1.40;;
12871;SDS011;6504;53.766;9.626;2024-01-15T14:54:44;1.27;;;1.17;;
12871;SDS011;6504;53.766;9.626;2024-01-15T14:57:14;1.93;;;1.20;;
12871;SDS011;6504;53.766;9.626;2024-01-15T14:59:42;2.40;;;1.40;;
12871;SDS011;6504;53.766;9.626;2024-01-15T15:02:10;1.97;;;1.77;;
12871;SDS011;6504;53.766;9.626;2024-01-15T15:04:40;1.80;;;1.70;;
12871;SDS011;6504;53.766;9.626;2024-01-15T15:07:14;2.23;;;2.00;;
12871;SDS011;6504;53.766;9.626;2024-01-15T15:09:42;3.07;;;2.47;;
12871;SDS011;6504;53.766;9.626;2024-01-15T15:12:10;3.57;;;2.83;;
12871;SDS011;6504;53.766;9.626;2024-01-15T15:14:38;5.17;;;2.93;;